Trans Sea — 9HA2564 — position and weather

sailwx.info

Track history (hours):
 
Tides and Currents Weather Stations Pressure Air Temp Water Temp Dewpoint Dewpoint Depression Visibility Wind Speed Wind Dir Waves Ship Positions

Trans Sea

Last reported at 2014-Oct-30 15:33 UTC. Time now 2014-Oct-30 16:01 UTC.
Position N 43°25' E 004°50'.

Length 107 m; draft 5.9 m.

Type: Ship. MMSI: 248887000.

Date/timePositionNaut miles runAvg speedWind from/ knotsBaromVisibWave heightAir tempDewpointWater temp
2014-Oct-30 15:33N 43°25' E 004°50'0 0.0
2014-Oct-30 14:33N 43°25' E 004°50'0 0.0
2014-Oct-30 13:33N 43°25' E 004°50'0 0.0
2014-Oct-30 12:30N 43°25' E 004°50'0 0.0
2014-Oct-30 11:33N 43°25' E 004°50'0 0.0
2014-Oct-30 10:33N 43°25' E 004°50'0 0.0
2014-Oct-30 09:30N 43°25' E 004°50'0 0.0
2014-Oct-30 08:33N 43°25' E 004°50'0 0.0
2014-Oct-30 07:33N 43°25' E 004°50'0 0.0
2014-Oct-30 06:27N 43°25' E 004°50'0 0.0
2014-Oct-30 05:33N 43°25' E 004°50'0 0.0
2014-Oct-30 04:33N 43°25' E 004°50'0 0.0
2014-Oct-30 03:30N 43°25' E 004°50'0 0.0
2014-Oct-30 02:33N 43°25' E 004°50'0 0.0
2014-Oct-30 01:27N 43°25' E 004°50'0 0.0
2014-Oct-30 00:33N 43°25' E 004°50'0 0.0
2014-Oct-29 23:33N 43°25' E 004°50'0 0.0
2014-Oct-29 22:30N 43°25' E 004°50'0 0.0
2014-Oct-29 21:33N 43°25' E 004°50'0 0.0
2014-Oct-29 20:33N 43°25' E 004°50'0 0.0
2014-Oct-29 19:33N 43°25' E 004°50'0 0.0
2014-Oct-29 18:33N 43°25' E 004°50'0 0.0
2014-Oct-29 17:33N 43°25' E 004°50'0 0.0
2014-Oct-29 16:33N 43°25' E 004°50'0 0.0
2014-Oct-29 15:33N 43°25' E 004°50'0 0.0
2014-Oct-29 14:33N 43°25' E 004°50'5 4.4
2014-Oct-29 13:31N 43°24' E 004°56'0 0.1
2014-Oct-29 12:31N 43°24' E 004°56'0 0.1
2014-Oct-29 11:28N 43°24' E 004°56'0 0.0
2014-Oct-29 10:31N 43°24' E 004°56'0 0.0
2014-Oct-29 09:31N 43°24' E 004°56'0 0.0
2014-Oct-29 08:31N 43°24' E 004°56'0 0.0
2014-Oct-29 07:31N 43°24' E 004°56'0 0.0
2014-Oct-29 06:31N 43°24' E 004°56'0 0.0
2014-Oct-29 05:31N 43°24' E 004°56'0 0.0
2014-Oct-29 04:28N 43°24' E 004°56'0 0.0
2014-Oct-29 03:31N 43°24' E 004°56'0 0.0
2014-Oct-29 02:31N 43°24' E 004°56'0 0.0
2014-Oct-29 01:31N 43°24' E 004°56'0 0.0
2014-Oct-29 00:31N 43°24' E 004°56'0 0.0
2014-Oct-28 23:31N 43°24' E 004°56'0 0.0
2014-Oct-28 22:31N 43°24' E 004°56'0 0.0
2014-Oct-28 21:31N 43°24' E 004°56'0 0.0
2014-Oct-28 20:31N 43°24' E 004°56'0 0.0
2014-Oct-28 19:31N 43°24' E 004°56'0 0.0
2014-Oct-28 18:31N 43°24' E 004°56'0 0.1
2014-Oct-28 17:34N 43°24' E 004°56'9 9.3
2014-Oct-28 16:33N 43°16' E 005°01'1412.5
2014-Oct-28 15:27N 43°03' E 004°54'1412.9
2014-Oct-28 14:24N 42°52' E 004°42'1112.6
2014-Oct-28 13:30N 42°43' E 004°32'1513.0
2014-Oct-28 12:21N 42°32' E 004°20'1012.7
2014-Oct-28 11:33N 42°24' E 004°11'1413.5
2014-Oct-28 10:33N 42°13' E 004°01'1413.5
2014-Oct-28 09:31N 42°01' E 003°49'1412.2
2014-Oct-28 08:20N 41°50' E 003°38'1112.1
2014-Oct-28 07:25N 41°41' E 003°29'1412.6
2014-Oct-28 06:18N 41°30' E 003°17'3712.2
2014-Oct-28 03:18N 41°01' E 002°47'1012.9
2014-Oct-28 02:33N 40°53' E 002°39'1312.9
2014-Oct-28 01:33N 40°43' E 002°29'1313.3
2014-Oct-28 00:33N 40°33' E 002°18'1313.1
2014-Oct-27 23:33N 40°22' E 002°08'1313.2
2014-Oct-27 22:33N 40°12' E 001°57'1313.2
2014-Oct-27 21:33N 40°01' E 001°47'1313.1
2014-Oct-27 20:33N 39°51' E 001°36'15312.6
2014-Oct-27 08:27N 37°47' W 000°19'1112.3
2014-Oct-27 07:33N 37°38' W 000°27'1412.0
2014-Oct-27 06:21N 37°28' W 000°39'1011.9
2014-Oct-27 05:33N 37°21' W 000°48'23313.0
2014-Oct-26 11:33N 35°55' W 005°18'2 1.7
2014-Oct-26 10:32N 35°54' W 005°19'0 0.0
2014-Oct-26 09:32N 35°54' W 005°19'0 0.0
2014-Oct-26 08:32N 35°54' W 005°19'0 0.0
2014-Oct-26 07:32N 35°54' W 005°19'0 0.0
2014-Oct-26 06:32N 35°54' W 005°19'1 0.9
2014-Oct-26 05:33N 35°55' W 005°18'1 1.0
2014-Oct-26 04:33N 35°55' W 005°19'18512.8
2014-Oct-25 14:07N 36°27' W 009°05'1412.7
2014-Oct-25 13:03N 36°31' W 009°21'712.4
2014-Oct-25 12:27N 36°36' W 009°27'1112.8
2014-Oct-25 11:33N 36°45' W 009°36'2912.9
2014-Oct-25 09:16N 37°13' W 009°46'913.1
2014-Oct-25 08:33N 37°23' W 009°49'1313.2
2014-Oct-25 07:33N 37°35' W 009°54'1313.4
2014-Oct-25 06:33N 37°48' W 009°57'1313.3
2014-Oct-25 05:33N 38°01' W 010°01'1313.1
2014-Oct-25 04:33N 38°14' W 010°04'2613.3
2014-Oct-25 02:33N 38°40' W 010°11'58 1.2
2014-Oct-23 03:12N 39°34' W 009°42'2413.3
2014-Oct-23 01:25N 39°10' W 009°47'1113.1
2014-Oct-23 00:33N 38°59' W 009°49'1313.2
2014-Oct-22 23:32N 38°46' W 009°49'1212.4
2014-Oct-22 22:33N 38°33' W 009°47'1412.9
2014-Oct-22 21:29N 38°20' W 009°44'1513.1
2014-Oct-22 20:21N 38°05' W 009°40'1013.0
2014-Oct-22 19:33N 37°55' W 009°37'1412.8
2014-Oct-22 18:28N 37°42' W 009°34'1212.6
2014-Oct-22 17:33N 37°30' W 009°31'1312.9
2014-Oct-22 16:33N 37°18' W 009°27'1312.8
2014-Oct-22 15:33N 37°05' W 009°23'1212.5
2014-Oct-22 14:33N 36°53' W 009°19'6312.5
2014-Oct-22 09:33N 36°29' W 008°07'12912.9
2014-Oct-21 23:33N 35°59' W 005°32'1212.0
2014-Oct-21 22:34N 36°02' W 005°18'25513.3
2014-Oct-21 03:25N 36°51' W 000°07'1213.7
2014-Oct-21 02:34N 36°54' E 000°07'1413.8
2014-Oct-21 01:33N 36°57' E 000°24'1413.7
2014-Oct-21 00:32N 37°01' E 000°41'1313.8
2014-Oct-20 23:33N 37°04' E 000°58'1413.6
2014-Oct-20 22:32N 37°07' E 001°14'1313.6
2014-Oct-20 21:33N 37°10' E 001°31'  
Track history (hours):
 
Tides and Currents Weather Stations Pressure Air Temp Water Temp Dewpoint Dewpoint Depression Visibility Wind Speed Wind Dir Waves Ship Positions

Trans Sea

Last reported at 2014-Oct-30 15:33 UTC. Time now 2014-Oct-30 16:01 UTC.
Position N 43°25' E 004°50'.

Length 107 m; draft 5.9 m.

Type: Ship. MMSI: 248887000.

Date/timePositionNaut miles runAvg speedWind from/ knotsBaromVisibWave heightAir tempDewpointWater temp
2014-Oct-30 15:33N 43°25' E 004°50'0 0.0
2014-Oct-30 14:33N 43°25' E 004°50'0 0.0
2014-Oct-30 13:33N 43°25' E 004°50'0 0.0
2014-Oct-30 12:30N 43°25' E 004°50'0 0.0
2014-Oct-30 11:33N 43°25' E 004°50'0 0.0
2014-Oct-30 10:33N 43°25' E 004°50'0 0.0
2014-Oct-30 09:30N 43°25' E 004°50'0 0.0
2014-Oct-30 08:33N 43°25' E 004°50'0 0.0
2014-Oct-30 07:33N 43°25' E 004°50'0 0.0
2014-Oct-30 06:27N 43°25' E 004°50'0 0.0
2014-Oct-30 05:33N 43°25' E 004°50'0 0.0
2014-Oct-30 04:33N 43°25' E 004°50'0 0.0
2014-Oct-30 03:30N 43°25' E 004°50'0 0.0
2014-Oct-30 02:33N 43°25' E 004°50'0 0.0
2014-Oct-30 01:27N 43°25' E 004°50'0 0.0
2014-Oct-30 00:33N 43°25' E 004°50'0 0.0
2014-Oct-29 23:33N 43°25' E 004°50'0 0.0
2014-Oct-29 22:30N 43°25' E 004°50'0 0.0
2014-Oct-29 21:33N 43°25' E 004°50'0 0.0
2014-Oct-29 20:33N 43°25' E 004°50'0 0.0
2014-Oct-29 19:33N 43°25' E 004°50'0 0.0
2014-Oct-29 18:33N 43°25' E 004°50'0 0.0
2014-Oct-29 17:33N 43°25' E 004°50'0 0.0
2014-Oct-29 16:33N 43°25' E 004°50'0 0.0
2014-Oct-29 15:33N 43°25' E 004°50'0 0.0
2014-Oct-29 14:33N 43°25' E 004°50'5 4.4
2014-Oct-29 13:31N 43°24' E 004°56'0 0.1
2014-Oct-29 12:31N 43°24' E 004°56'0 0.1
2014-Oct-29 11:28N 43°24' E 004°56'0 0.0
2014-Oct-29 10:31N 43°24' E 004°56'0 0.0
2014-Oct-29 09:31N 43°24' E 004°56'0 0.0
2014-Oct-29 08:31N 43°24' E 004°56'0 0.0
2014-Oct-29 07:31N 43°24' E 004°56'0 0.0
2014-Oct-29 06:31N 43°24' E 004°56'0 0.0
2014-Oct-29 05:31N 43°24' E 004°56'0 0.0
2014-Oct-29 04:28N 43°24' E 004°56'0 0.0
2014-Oct-29 03:31N 43°24' E 004°56'0 0.0
2014-Oct-29 02:31N 43°24' E 004°56'0 0.0
2014-Oct-29 01:31N 43°24' E 004°56'0 0.0
2014-Oct-29 00:31N 43°24' E 004°56'0 0.0
2014-Oct-28 23:31N 43°24' E 004°56'0 0.0
2014-Oct-28 22:31N 43°24' E 004°56'0 0.0
2014-Oct-28 21:31N 43°24' E 004°56'0 0.0
2014-Oct-28 20:31N 43°24' E 004°56'0 0.0
2014-Oct-28 19:31N 43°24' E 004°56'0 0.0
2014-Oct-28 18:31N 43°24' E 004°56'0 0.1
2014-Oct-28 17:34N 43°24' E 004°56'9 9.3
2014-Oct-28 16:33N 43°16' E 005°01'1412.5
2014-Oct-28 15:27N 43°03' E 004°54'1412.9
2014-Oct-28 14:24N 42°52' E 004°42'1112.6
2014-Oct-28 13:30N 42°43' E 004°32'1513.0
2014-Oct-28 12:21N 42°32' E 004°20'1012.7
2014-Oct-28 11:33N 42°24' E 004°11'1413.5
2014-Oct-28 10:33N 42°13' E 004°01'1413.5
2014-Oct-28 09:31N 42°01' E 003°49'1412.2
2014-Oct-28 08:20N 41°50' E 003°38'1112.1
2014-Oct-28 07:25N 41°41' E 003°29'1412.6
2014-Oct-28 06:18N 41°30' E 003°17'3712.2
2014-Oct-28 03:18N 41°01' E 002°47'1012.9
2014-Oct-28 02:33N 40°53' E 002°39'1312.9
2014-Oct-28 01:33N 40°43' E 002°29'1313.3
2014-Oct-28 00:33N 40°33' E 002°18'1313.1
2014-Oct-27 23:33N 40°22' E 002°08'1313.2
2014-Oct-27 22:33N 40°12' E 001°57'1313.2
2014-Oct-27 21:33N 40°01' E 001°47'1313.1
2014-Oct-27 20:33N 39°51' E 001°36'15312.6
2014-Oct-27 08:27N 37°47' W 000°19'1112.3
2014-Oct-27 07:33N 37°38' W 000°27'1412.0
2014-Oct-27 06:21N 37°28' W 000°39'1011.9
2014-Oct-27 05:33N 37°21' W 000°48'23313.0
2014-Oct-26 11:33N 35°55' W 005°18'2 1.7
2014-Oct-26 10:32N 35°54' W 005°19'0 0.0
2014-Oct-26 09:32N 35°54' W 005°19'0 0.0
2014-Oct-26 08:32N 35°54' W 005°19'0 0.0
2014-Oct-26 07:32N 35°54' W 005°19'0 0.0
2014-Oct-26 06:32N 35°54' W 005°19'1 0.9
2014-Oct-26 05:33N 35°55' W 005°18'1 1.0
2014-Oct-26 04:33N 35°55' W 005°19'18512.8
2014-Oct-25 14:07N 36°27' W 009°05'1412.7
2014-Oct-25 13:03N 36°31' W 009°21'712.4
2014-Oct-25 12:27N 36°36' W 009°27'1112.8
2014-Oct-25 11:33N 36°45' W 009°36'2912.9
2014-Oct-25 09:16N 37°13' W 009°46'913.1
2014-Oct-25 08:33N 37°23' W 009°49'1313.2
2014-Oct-25 07:33N 37°35' W 009°54'1313.4
2014-Oct-25 06:33N 37°48' W 009°57'1313.3
2014-Oct-25 05:33N 38°01' W 010°01'1313.1
2014-Oct-25 04:33N 38°14' W 010°04'2613.3
2014-Oct-25 02:33N 38°40' W 010°11'58 1.2
2014-Oct-23 03:12N 39°34' W 009°42'2413.3
2014-Oct-23 01:25N 39°10' W 009°47'1113.1
2014-Oct-23 00:33N 38°59' W 009°49'1313.2
2014-Oct-22 23:32N 38°46' W 009°49'1212.4
2014-Oct-22 22:33N 38°33' W 009°47'1412.9
2014-Oct-22 21:29N 38°20' W 009°44'1513.1
2014-Oct-22 20:21N 38°05' W 009°40'1013.0
2014-Oct-22 19:33N 37°55' W 009°37'1412.8
2014-Oct-22 18:28N 37°42' W 009°34'1212.6
2014-Oct-22 17:33N 37°30' W 009°31'1312.9
2014-Oct-22 16:33N 37°18' W 009°27'1312.8
2014-Oct-22 15:33N 37°05' W 009°23'1212.5
2014-Oct-22 14:33N 36°53' W 009°19'6312.5
2014-Oct-22 09:33N 36°29' W 008°07'12912.9
2014-Oct-21 23:33N 35°59' W 005°32'1212.0
2014-Oct-21 22:34N 36°02' W 005°18'25513.3
2014-Oct-21 03:25N 36°51' W 000°07'1213.7
2014-Oct-21 02:34N 36°54' E 000°07'1413.8
2014-Oct-21 01:33N 36°57' E 000°24'1413.7
2014-Oct-21 00:32N 37°01' E 000°41'1313.8
2014-Oct-20 23:33N 37°04' E 000°58'1413.6
2014-Oct-20 22:32N 37°07' E 001°14'1313.6
2014-Oct-20 21:33N 37°10' E 001°31'  

Dump ship's entire track history